createdAt,value
2023-05-31T00:00:36.818Z,17.50
2023-05-31T00:03:42.691Z,17.50
2023-05-31T00:06:46.014Z,17.47
2023-05-31T00:09:48.773Z,17.43
2023-05-31T00:12:51.249Z,17.43
2023-05-31T00:15:53.998Z,17.40
2023-05-31T00:18:56.774Z,17.37
2023-05-31T00:21:59.939Z,17.33
2023-05-31T00:25:02.654Z,17.33
2023-05-31T00:28:05.572Z,17.31
2023-05-31T00:31:08.147Z,17.30
2023-05-31T00:34:13.137Z,17.30
2023-05-31T00:37:15.791Z,17.29
2023-05-31T00:40:18.560Z,17.27
2023-05-31T00:43:21.242Z,17.28
2023-05-31T00:46:28.379Z,17.30
2023-05-31T00:49:31.371Z,17.33
2023-05-31T00:52:35.397Z,17.33
2023-05-31T00:55:38.809Z,17.32
2023-05-31T00:58:42.870Z,17.35
2023-05-31T01:01:45.703Z,17.34
2023-05-31T01:04:50.561Z,17.35
2023-05-31T01:07:53.300Z,17.32
2023-05-31T01:11:00.574Z,17.32
2023-05-31T01:14:18.219Z,17.34
2023-05-31T01:17:35.731Z,17.33
2023-05-31T01:20:40.854Z,17.31
2023-05-31T01:23:52.527Z,17.30
2023-05-31T01:26:59.871Z,17.28
2023-05-31T01:30:05.918Z,17.31
2023-05-31T01:33:11.463Z,17.29
2023-05-31T01:36:14.448Z,17.28
2023-05-31T01:39:20.529Z,17.28
2023-05-31T01:42:24.791Z,17.27
2023-05-31T01:45:29.723Z,17.29
2023-05-31T01:48:33.187Z,17.27
2023-05-31T01:51:38.485Z,17.25
2023-05-31T01:54:41.430Z,17.25
2023-05-31T01:57:45.517Z,17.25
2023-05-31T02:00:49.902Z,17.25
2023-05-31T02:03:52.984Z,17.24
2023-05-31T02:06:55.548Z,17.22
2023-05-31T02:09:58.569Z,17.23
2023-05-31T02:13:01.526Z,17.21
2023-05-31T02:16:05.089Z,17.21
2023-05-31T02:19:07.912Z,17.19
2023-05-31T02:22:10.667Z,17.20
2023-05-31T02:25:14.892Z,17.19
2023-05-31T02:28:18.268Z,17.19
2023-05-31T02:31:21.213Z,17.22
2023-05-31T02:34:23.900Z,17.18
2023-05-31T02:37:31.555Z,17.16
2023-05-31T02:40:34.013Z,17.15
2023-05-31T02:43:36.701Z,17.16
2023-05-31T02:46:39.207Z,17.13
2023-05-31T02:49:42.380Z,17.14
2023-05-31T02:52:45.023Z,17.15
2023-05-31T02:55:48.122Z,17.12
2023-05-31T02:58:52.861Z,17.13
2023-05-31T03:01:57.525Z,17.10
2023-05-31T03:05:03.442Z,17.17
2023-05-31T03:08:06.524Z,17.16
2023-05-31T03:11:10.650Z,17.14
2023-05-31T03:14:13.784Z,17.16
2023-05-31T03:17:16.753Z,17.14
2023-05-31T03:20:19.784Z,17.19
2023-05-31T03:23:22.676Z,17.20
2023-05-31T03:26:25.698Z,17.21
2023-05-31T03:29:28.929Z,17.20
2023-05-31T03:32:35.479Z,17.19
2023-05-31T03:35:39.662Z,17.21
2023-05-31T03:38:42.523Z,17.21
2023-05-31T03:41:45.079Z,17.23
2023-05-31T03:44:47.889Z,17.22
2023-05-31T03:47:50.751Z,17.20
2023-05-31T03:50:53.943Z,17.22
2023-05-31T03:53:56.684Z,17.21
2023-05-31T03:56:59.717Z,17.25
2023-05-31T04:00:02.567Z,17.26
2023-05-31T04:03:15.746Z,17.25
2023-05-31T04:06:18.646Z,17.28
2023-05-31T04:09:21.602Z,17.30
2023-05-31T04:12:24.609Z,17.33
2023-05-31T04:15:27.905Z,17.34
2023-05-31T04:18:30.967Z,17.42
2023-05-31T04:21:34.016Z,17.39
2023-05-31T04:24:37.494Z,17.39
2023-05-31T04:27:41.544Z,17.46
2023-05-31T04:30:45.619Z,17.51
2023-05-31T04:33:48.597Z,17.60
2023-05-31T04:36:52.297Z,17.67
2023-05-31T04:39:55.749Z,17.69
2023-05-31T04:43:04.491Z,17.72
2023-05-31T04:46:07.229Z,17.73
2023-05-31T04:49:25.510Z,17.85
2023-05-31T04:52:33.551Z,17.90
2023-05-31T04:55:36.743Z,17.98
2023-05-31T04:58:40.874Z,18.00
2023-05-31T05:01:43.726Z,18.05
2023-05-31T05:04:47.063Z,18.14
2023-05-31T05:07:50.145Z,18.16
2023-05-31T05:10:52.955Z,18.19
2023-05-31T05:13:55.822Z,18.32
2023-05-31T05:16:59.035Z,18.37
2023-05-31T05:20:02.377Z,18.30
2023-05-31T05:23:08.516Z,18.32
2023-05-31T05:26:12.607Z,18.37
2023-05-31T05:29:16.100Z,18.44
2023-05-31T05:32:19.594Z,18.54
2023-05-31T05:35:22.012Z,18.59
2023-05-31T05:38:25.137Z,18.62
2023-05-31T05:41:28.257Z,18.70
2023-05-31T05:44:31.303Z,18.83
2023-05-31T05:47:35.084Z,18.80
2023-05-31T05:50:38.218Z,18.93
2023-05-31T05:53:40.778Z,19.04
2023-05-31T05:56:44.155Z,19.28
2023-05-31T05:59:48.492Z,19.27
2023-05-31T06:02:51.664Z,19.31
2023-05-31T06:05:54.606Z,19.43
2023-05-31T06:08:57.100Z,19.48
2023-05-31T06:12:00.062Z,19.61
2023-05-31T06:15:03.438Z,19.58
2023-05-31T06:18:06.339Z,19.89
2023-05-31T06:21:09.120Z,20.06
2023-05-31T06:24:12.531Z,20.02
2023-05-31T06:27:16.006Z,20.19
2023-05-31T06:30:19.916Z,20.54
2023-05-31T06:33:22.465Z,20.79
2023-05-31T06:36:26.132Z,20.77
2023-05-31T06:39:28.813Z,20.92
2023-05-31T06:42:31.902Z,20.81
2023-05-31T06:45:42.689Z,21.12
2023-05-31T06:48:52.646Z,21.23
2023-05-31T06:52:00.960Z,21.13
2023-05-31T06:55:06.394Z,21.50
2023-05-31T06:58:10.318Z,21.88
2023-05-31T07:01:16.075Z,22.27
2023-05-31T07:04:18.804Z,22.70
2023-05-31T07:07:21.553Z,22.70
2023-05-31T07:10:24.396Z,22.61
2023-05-31T07:13:27.542Z,22.43
2023-05-31T07:16:30.203Z,22.16
2023-05-31T07:19:33.134Z,22.25
2023-05-31T07:22:35.895Z,22.39
2023-05-31T07:25:38.841Z,22.92
2023-05-31T07:28:41.294Z,22.92
2023-05-31T07:31:44.060Z,22.63
2023-05-31T07:35:03.122Z,23.00
2023-05-31T07:38:07.312Z,22.64
2023-05-31T07:41:09.996Z,23.06
2023-05-31T07:44:12.724Z,22.96
2023-05-31T07:47:18.174Z,23.49
2023-05-31T07:50:21.119Z,23.71
2023-05-31T07:53:23.661Z,23.86
2023-05-31T07:56:26.695Z,23.64
2023-05-31T07:59:29.152Z,24.44
2023-05-31T08:02:32.270Z,24.42
2023-05-31T08:05:35.768Z,24.36
2023-05-31T08:08:38.280Z,24.45
2023-05-31T08:11:41.039Z,24.61
2023-05-31T08:14:43.680Z,23.85
2023-05-31T08:17:47.585Z,24.23
2023-05-31T08:20:50.150Z,24.38
2023-05-31T08:23:52.987Z,24.57
2023-05-31T08:26:57.251Z,25.01
2023-05-31T08:30:00.048Z,25.01
2023-05-31T08:33:03.045Z,25.00
2023-05-31T08:36:06.013Z,24.95
2023-05-31T08:39:10.157Z,25.08
2023-05-31T08:42:19.425Z,25.51
2023-05-31T08:45:22.305Z,24.91
2023-05-31T08:48:46.612Z,25.32
2023-05-31T08:51:49.550Z,24.96
2023-05-31T08:54:52.915Z,25.20
2023-05-31T08:57:57.230Z,25.52
2023-05-31T09:01:02.811Z,26.05
2023-05-31T09:04:09.309Z,26.03
2023-05-31T09:07:12.169Z,25.50
2023-05-31T09:10:16.114Z,25.72
2023-05-31T09:13:19.669Z,25.82
2023-05-31T09:16:24.404Z,26.04
2023-05-31T09:19:27.583Z,25.39
2023-05-31T09:22:30.045Z,25.59
2023-05-31T09:25:47.309Z,25.70
2023-05-31T09:28:52.266Z,26.27
2023-05-31T09:32:11.436Z,26.56
2023-05-31T09:35:16.120Z,25.74
2023-05-31T09:38:19.281Z,26.12
2023-05-31T09:41:22.558Z,26.18
2023-05-31T09:44:29.421Z,26.22
2023-05-31T09:47:31.973Z,26.08
2023-05-31T09:50:34.774Z,27.34
2023-05-31T09:53:44.472Z,26.51
2023-05-31T09:56:47.708Z,26.72
2023-05-31T09:59:58.310Z,26.79
2023-05-31T10:03:03.035Z,26.36
2023-05-31T10:06:06.314Z,26.53
2023-05-31T10:09:09.140Z,26.81
2023-05-31T10:12:15.070Z,26.71
2023-05-31T10:15:22.500Z,27.12
2023-05-31T10:18:34.165Z,27.01
2023-05-31T10:21:42.416Z,27.01
2023-05-31T10:24:54.156Z,27.89
2023-05-31T10:28:02.389Z,27.67
2023-05-31T10:31:05.967Z,27.25
2023-05-31T10:34:23.921Z,27.38
2023-05-31T10:37:27.764Z,27.07
2023-05-31T10:40:51.961Z,27.55
2023-05-31T10:44:03.975Z,27.15
2023-05-31T10:47:10.592Z,27.81
2023-05-31T10:50:23.598Z,27.81
2023-05-31T10:53:36.737Z,27.90
2023-05-31T10:56:40.288Z,27.25
2023-05-31T10:59:46.449Z,26.58
2023-05-31T11:02:52.538Z,27.10
2023-05-31T11:05:56.927Z,28.14
2023-05-31T11:09:01.328Z,27.57
2023-05-31T11:12:05.016Z,27.14
2023-05-31T11:15:14.636Z,27.56
2023-05-31T11:18:27.212Z,27.52
2023-05-31T11:22:07.510Z,28.41
2023-05-31T11:25:23.870Z,27.98
2023-05-31T11:28:27.422Z,28.19
2023-05-31T11:31:51.943Z,28.17
2023-05-31T11:35:00.692Z,27.78
2023-05-31T11:38:05.595Z,28.26
2023-05-31T11:41:08.900Z,28.84
2023-05-31T11:44:12.751Z,29.04
2023-05-31T11:47:20.829Z,28.44
2023-05-31T11:50:26.958Z,28.47
2023-05-31T11:53:29.867Z,28.54
2023-05-31T11:56:39.200Z,27.54
2023-05-31T11:59:42.402Z,26.42
2023-05-31T12:02:48.485Z,27.46
2023-05-31T12:05:52.820Z,27.92
2023-05-31T12:08:55.987Z,28.10
2023-05-31T12:11:59.166Z,27.88
2023-05-31T12:15:03.004Z,27.28
2023-05-31T12:18:06.110Z,26.93
2023-05-31T12:21:09.887Z,26.16
2023-05-31T12:24:14.734Z,26.72
2023-05-31T12:27:24.425Z,27.52
2023-05-31T12:30:46.492Z,28.14
2023-05-31T12:34:11.798Z,28.00
2023-05-31T12:37:15.076Z,28.03
2023-05-31T12:40:24.289Z,28.39
2023-05-31T12:43:27.621Z,28.29
2023-05-31T12:46:38.273Z,27.37
2023-05-31T12:49:42.951Z,27.50
2023-05-31T12:52:56.245Z,27.27
2023-05-31T12:55:58.993Z,27.85
2023-05-31T12:59:01.779Z,28.27
2023-05-31T13:02:05.815Z,28.72
2023-05-31T13:05:09.378Z,28.08
2023-05-31T13:08:12.232Z,27.68
2023-05-31T13:11:14.657Z,27.80
2023-05-31T13:14:21.897Z,28.15
2023-05-31T13:17:27.615Z,27.83
2023-05-31T13:20:30.763Z,28.48
2023-05-31T13:23:33.416Z,29.10
2023-05-31T13:26:37.318Z,28.44
2023-05-31T13:29:40.568Z,28.34
2023-05-31T13:32:44.371Z,28.10
2023-05-31T13:35:47.189Z,28.27
2023-05-31T13:38:50.416Z,27.57
2023-05-31T13:41:52.897Z,27.00
2023-05-31T13:44:55.869Z,26.63
2023-05-31T13:47:58.402Z,26.47
2023-05-31T13:51:01.457Z,27.41
2023-05-31T13:54:04.915Z,27.71
2023-05-31T13:57:08.023Z,28.06
2023-05-31T14:00:12.139Z,28.40
2023-05-31T14:03:15.135Z,28.01
2023-05-31T14:06:18.036Z,27.52
2023-05-31T14:09:21.966Z,27.77
2023-05-31T14:12:24.822Z,27.60
2023-05-31T14:15:27.802Z,27.69
2023-05-31T14:18:30.231Z,26.85
2023-05-31T14:21:33.740Z,26.93
2023-05-31T14:24:36.358Z,27.89
2023-05-31T14:27:39.097Z,27.47
2023-05-31T14:30:41.590Z,27.52
2023-05-31T14:33:44.587Z,27.23
2023-05-31T14:36:47.704Z,27.43
2023-05-31T14:39:51.175Z,27.22
2023-05-31T14:42:53.689Z,27.11
2023-05-31T14:45:56.713Z,26.69
2023-05-31T14:48:59.421Z,26.14
2023-05-31T14:52:02.686Z,26.02
2023-05-31T14:55:05.594Z,26.67
2023-05-31T14:58:08.901Z,26.98
2023-05-31T15:01:12.019Z,26.88
2023-05-31T15:04:16.524Z,26.73
2023-05-31T15:07:19.385Z,26.73
2023-05-31T15:10:22.193Z,27.10
2023-05-31T15:13:24.811Z,27.08
2023-05-31T15:16:27.899Z,27.00
2023-05-31T15:19:31.317Z,27.35
2023-05-31T15:22:34.116Z,27.58
2023-05-31T15:25:36.829Z,27.15
2023-05-31T15:28:39.825Z,27.17
2023-05-31T15:31:42.295Z,27.09
2023-05-31T15:34:45.319Z,27.14
2023-05-31T15:37:48.029Z,26.71
2023-05-31T15:40:51.994Z,26.82
2023-05-31T15:43:54.722Z,27.03
2023-05-31T15:46:57.752Z,27.15
2023-05-31T15:50:02.237Z,26.90
2023-05-31T15:53:05.264Z,26.79
2023-05-31T15:56:07.783Z,26.26
2023-05-31T15:59:11.025Z,25.92
2023-05-31T16:02:14.120Z,25.88
2023-05-31T16:05:16.986Z,25.83
2023-05-31T16:08:19.682Z,26.10
2023-05-31T16:11:23.094Z,26.10
2023-05-31T16:14:25.865Z,26.09
2023-05-31T16:17:28.810Z,26.12
2023-05-31T16:20:31.616Z,26.03
2023-05-31T16:23:34.586Z,26.05
2023-05-31T16:26:37.300Z,25.96
2023-05-31T16:29:40.298Z,25.94
2023-05-31T16:32:43.192Z,26.04
2023-05-31T16:35:46.150Z,26.03
2023-05-31T16:38:48.917Z,26.00
2023-05-31T16:41:51.980Z,25.91
2023-05-31T16:44:55.602Z,25.81
2023-05-31T16:47:58.825Z,25.65
2023-05-31T16:51:01.402Z,25.48
2023-05-31T16:54:05.119Z,25.35
2023-05-31T16:57:07.825Z,25.13
2023-05-31T17:00:11.453Z,25.02
2023-05-31T17:03:14.380Z,24.82
2023-05-31T17:06:19.793Z,24.73
2023-05-31T17:09:22.227Z,24.53
2023-05-31T17:12:25.269Z,24.71
2023-05-31T17:15:27.902Z,24.63
2023-05-31T17:18:30.839Z,24.47
2023-05-31T17:21:33.930Z,24.38
2023-05-31T17:24:36.934Z,24.22
2023-05-31T17:27:40.614Z,24.15
2023-05-31T17:30:43.627Z,24.10
2023-05-31T17:33:46.291Z,24.10
2023-05-31T17:36:49.502Z,24.04
2023-05-31T17:39:52.280Z,24.09
2023-05-31T17:42:55.097Z,23.91
2023-05-31T17:45:59.399Z,23.86
2023-05-31T17:49:02.618Z,23.84
2023-05-31T17:52:06.148Z,23.81
2023-05-31T17:55:09.687Z,23.63
2023-05-31T17:58:14.762Z,23.51
2023-05-31T18:01:18.451Z,23.48
2023-05-31T18:04:21.643Z,23.38
2023-05-31T18:07:24.334Z,23.26
2023-05-31T18:10:27.357Z,23.24
2023-05-31T18:13:30.115Z,23.16
2023-05-31T18:16:32.991Z,23.07
2023-05-31T18:19:35.864Z,22.97
2023-05-31T18:22:39.012Z,22.85
2023-05-31T18:25:41.705Z,22.64
2023-05-31T18:28:44.750Z,22.41
2023-05-31T18:31:47.451Z,22.14
2023-05-31T18:34:50.635Z,21.92
2023-05-31T18:37:53.443Z,21.71
2023-05-31T18:40:56.382Z,21.53
2023-05-31T18:43:59.163Z,21.36
2023-05-31T18:47:02.677Z,21.23
2023-05-31T18:50:06.512Z,21.11
2023-05-31T18:53:09.369Z,21.01
2023-05-31T18:56:12.040Z,20.81
2023-05-31T18:59:15.230Z,20.74
2023-05-31T19:02:18.047Z,20.65
2023-05-31T19:05:21.297Z,20.56
2023-05-31T19:08:24.022Z,20.47
2023-05-31T19:11:28.812Z,20.36
2023-05-31T19:14:31.994Z,20.27
2023-05-31T19:17:34.923Z,20.21
2023-05-31T19:20:38.360Z,20.13
2023-05-31T19:23:43.866Z,20.07
2023-05-31T19:26:46.582Z,19.99
2023-05-31T19:29:49.358Z,19.94
2023-05-31T19:32:52.040Z,19.87
2023-05-31T19:35:55.066Z,19.77
2023-05-31T19:38:58.572Z,19.70
2023-05-31T19:42:01.270Z,19.65
2023-05-31T19:45:06.253Z,19.55
2023-05-31T19:48:09.124Z,19.49
2023-05-31T19:51:13.250Z,19.39
2023-05-31T19:54:19.286Z,19.28
2023-05-31T19:57:22.147Z,19.16
2023-05-31T20:00:24.949Z,19.09
2023-05-31T20:03:28.827Z,19.03
2023-05-31T20:06:31.393Z,19.09
2023-05-31T20:09:34.392Z,19.03
2023-05-31T20:12:37.700Z,18.92
2023-05-31T20:15:40.636Z,18.89
2023-05-31T20:18:43.862Z,18.87
2023-05-31T20:21:47.402Z,18.74
2023-05-31T20:24:49.845Z,18.74
2023-05-31T20:27:52.707Z,18.71
2023-05-31T20:30:56.173Z,18.72
2023-05-31T20:33:59.140Z,18.71
2023-05-31T20:37:02.792Z,18.69
2023-05-31T20:40:06.936Z,18.67
2023-05-31T20:43:09.643Z,18.62
2023-05-31T20:46:13.097Z,18.57
2023-05-31T20:49:15.615Z,18.52
2023-05-31T20:52:20.226Z,18.46
2023-05-31T20:55:22.773Z,18.34
2023-05-31T20:58:25.904Z,18.30
2023-05-31T21:01:28.786Z,18.22
2023-05-31T21:04:32.434Z,18.14
2023-05-31T21:07:34.913Z,18.09
2023-05-31T21:10:38.020Z,18.08
2023-05-31T21:13:40.714Z,18.03
2023-05-31T21:16:43.788Z,17.96
2023-05-31T21:19:55.694Z,17.92
2023-05-31T21:22:58.554Z,17.82
2023-05-31T21:26:01.231Z,17.80
2023-05-31T21:29:04.543Z,17.71
2023-05-31T21:32:07.628Z,17.65
2023-05-31T21:35:10.592Z,17.48
2023-05-31T21:38:13.083Z,17.42
2023-05-31T21:41:16.082Z,17.49
2023-05-31T21:44:18.558Z,17.52
2023-05-31T21:47:21.406Z,17.49
2023-05-31T21:50:24.024Z,17.38
2023-05-31T21:53:26.749Z,17.35
2023-05-31T21:56:29.236Z,17.26
2023-05-31T21:59:31.964Z,17.26
2023-05-31T22:02:34.963Z,17.26
2023-05-31T22:05:37.728Z,17.27
2023-05-31T22:08:40.227Z,17.28
2023-05-31T22:11:43.457Z,17.25
2023-05-31T22:14:45.862Z,17.20
2023-05-31T22:17:50.920Z,17.18
2023-05-31T22:20:56.628Z,16.99
2023-05-31T22:23:59.822Z,16.87
2023-05-31T22:27:06.316Z,16.84
2023-05-31T22:30:10.100Z,16.80
2023-05-31T22:33:12.767Z,16.85
2023-05-31T22:36:16.697Z,16.87
2023-05-31T22:39:19.297Z,16.72
2023-05-31T22:42:22.875Z,16.72
2023-05-31T22:45:25.693Z,16.53
2023-05-31T22:48:29.669Z,16.54
2023-05-31T22:51:34.145Z,16.50
2023-05-31T22:54:37.212Z,16.37
2023-05-31T22:57:40.003Z,16.37
2023-05-31T23:00:42.985Z,16.23
2023-05-31T23:03:45.564Z,16.24
2023-05-31T23:06:48.929Z,16.19
2023-05-31T23:09:51.364Z,16.22
2023-05-31T23:13:01.485Z,16.10
2023-05-31T23:16:04.049Z,15.95
2023-05-31T23:19:06.968Z,15.93
2023-05-31T23:22:14.965Z,15.93
2023-05-31T23:25:18.003Z,15.84
2023-05-31T23:28:20.704Z,15.82
2023-05-31T23:31:23.497Z,15.72
2023-05-31T23:34:26.158Z,15.70
2023-05-31T23:37:29.219Z,15.70
2023-05-31T23:40:32.005Z,15.55
2023-05-31T23:43:34.976Z,15.52
2023-05-31T23:46:37.681Z,15.44
2023-05-31T23:49:40.600Z,15.41
2023-05-31T23:52:43.304Z,15.45
2023-05-31T23:55:46.193Z,15.36
2023-05-31T23:58:48.627Z,15.29
